Time;durP1;ratioP1;P1;durP2;ratioP2;P2;SDS_P1;SDS_P2;PMS_P1;PMS_P2;Temp;Humidity;BMP_temperature;BMP_pressure;BME280_temperature;BME280_humidity;BME280_pressure;Samples;Min_cycle;Max_cycle;Signal;HPM_P1;HPM_P2
2023/05/03 00:00:01;;;;;;;5.50;5.00;;;9.30;99.90;;;;;;5047177;28;20215;-74
2023/05/03 00:02:26;;;;;;;5.20;4.80;;;9.30;99.90;;;;;;5058251;28;20681;-74
2023/05/03 00:04:53;;;;;;;4.82;4.47;;;9.20;99.90;;;;;;5050391;28;20231;-75
2023/05/03 00:07:19;;;;;;;5.82;5.32;;;9.20;99.90;;;;;;5048103;28;20239;-75
2023/05/03 00:09:45;;;;;;;5.03;4.50;;;9.20;99.90;;;;;;5052000;28;20711;-74
2023/05/03 00:12:11;;;;;;;6.03;5.45;;;9.20;99.90;;;;;;5054716;28;20198;-74
2023/05/03 00:14:36;;;;;;;5.85;5.35;;;9.20;99.90;;;;;;5047541;28;20642;-74
2023/05/03 00:17:02;;;;;;;5.90;5.35;;;9.30;99.90;;;;;;5050739;28;20207;-74
2023/05/03 00:19:31;;;;;;;6.10;5.50;;;9.30;99.90;;;;;;5048225;28;20590;-74
2023/05/03 00:21:57;;;;;;;6.32;5.75;;;9.30;99.90;;;;;;5054044;28;20206;-74
2023/05/03 00:24:23;;;;;;;6.53;6.03;;;9.40;99.90;;;;;;5050585;28;20172;-74
2023/05/03 00:26:48;;;;;;;5.25;4.85;;;9.30;99.90;;;;;;5049113;28;20595;-74
2023/05/03 00:29:14;;;;;;;6.05;5.45;;;9.30;99.90;;;;;;5049403;28;20190;-74
2023/05/03 00:31:43;;;;;;;6.75;6.22;;;9.30;99.90;;;;;;5049241;28;20178;-74
2023/05/03 00:34:08;;;;;;;6.32;5.80;;;9.20;99.90;;;;;;5052390;28;20183;-74
2023/05/03 00:36:34;;;;;;;7.13;6.45;;;9.20;99.90;;;;;;5048337;28;20233;-74
2023/05/03 00:39:00;;;;;;;6.68;6.07;;;9.10;99.90;;;;;;5054710;28;20611;-74
2023/05/03 00:41:25;;;;;;;5.53;5.13;;;9.10;99.90;;;;;;5056398;28;20670;-75
2023/05/03 00:43:51;;;;;;;5.97;5.47;;;9.10;99.90;;;;;;5052409;28;20187;-74
2023/05/03 00:46:17;;;;;;;6.28;5.78;;;9.00;99.90;;;;;;5052310;28;20226;-74
2023/05/03 00:48:45;;;;;;;7.05;6.40;;;9.10;99.90;;;;;;5064960;28;20266;-75
2023/05/03 00:51:13;;;;;;;6.35;5.85;;;9.00;99.90;;;;;;5052294;28;20711;-74
2023/05/03 00:53:39;;;;;;;6.80;6.25;;;9.10;99.90;;;;;;5055758;28;20176;-74
2023/05/03 00:56:05;;;;;;;7.10;6.40;;;9.00;99.90;;;;;;5054130;28;20168;-74
2023/05/03 00:58:32;;;;;;;6.80;6.20;;;9.00;99.90;;;;;;5052213;28;20180;-74
2023/05/03 01:00:58;;;;;;;6.78;6.07;;;9.00;99.90;;;;;;5057159;28;20226;-74
2023/05/03 01:03:23;;;;;;;7.43;6.75;;;9.00;99.90;;;;;;5051341;28;20175;-74
2023/05/03 01:06:26;;;;;;;6.78;6.28;;;8.90;99.90;;;;;;5057940;28;20635;-75
2023/05/03 01:09:01;;;;;;;6.28;5.78;;;8.90;99.90;;;;;;5039931;28;20215;-74
2023/05/03 01:11:40;;;;;;;7.07;6.47;;;8.80;99.90;;;;;;5056725;28;20206;-74
2023/05/03 01:14:21;;;;;;;7.32;6.57;;;8.80;99.90;;;;;;5053937;28;20240;-74
2023/05/03 01:16:52;;;;;;;7.18;6.57;;;8.80;99.90;;;;;;5051658;28;20204;-74
2023/05/03 01:19:37;;;;;;;6.82;6.22;;;8.70;99.90;;;;;;5048010;28;20556;-75
2023/05/03 01:22:44;;;;;;;6.55;5.95;;;8.60;99.90;;;;;;5047176;28;20233;-74
2023/05/03 01:25:14;;;;;;;7.43;6.57;;;8.70;99.90;;;;;;5044572;28;20751;-74
2023/05/03 01:27:41;;;;;;;8.00;6.65;;;8.60;99.90;;;;;;5049568;28;20212;-74
2023/05/03 01:30:09;;;;;;;7.88;7.10;;;8.60;99.90;;;;;;5050952;28;20234;-74
2023/05/03 01:32:34;;;;;;;7.30;6.50;;;8.60;99.90;;;;;;5054216;28;20182;-74
2023/05/03 01:35:07;;;;;;;7.38;6.68;;;8.50;99.90;;;;;;5054763;28;20176;-74
2023/05/03 01:37:34;;;;;;;6.97;6.38;;;8.60;99.90;;;;;;5057937;28;20733;-74
2023/05/03 01:40:03;;;;;;;7.55;6.85;;;8.50;99.90;;;;;;5053505;28;20235;-74
2023/05/03 01:42:30;;;;;;;7.63;6.97;;;8.50;99.90;;;;;;5052573;28;20268;-76
2023/05/03 01:44:57;;;;;;;7.10;6.40;;;8.50;99.90;;;;;;5052067;28;20180;-74
2023/05/03 01:47:23;;;;;;;7.78;7.07;;;8.50;99.90;;;;;;5054082;28;20282;-74
2023/05/03 01:49:48;;;;;;;7.10;6.43;;;8.50;99.90;;;;;;5054769;28;20275;-74
2023/05/03 01:52:14;;;;;;;7.53;6.93;;;8.50;99.90;;;;;;5051204;28;20255;-74
2023/05/03 01:54:40;;;;;;;7.82;7.10;;;8.50;99.90;;;;;;5049074;28;20204;-75
2023/05/03 01:57:05;;;;;;;7.20;6.57;;;8.40;99.90;;;;;;5049710;28;20559;-75
2023/05/03 01:59:31;;;;;;;7.38;6.78;;;8.40;99.90;;;;;;5052603;28;20250;-74
2023/05/03 02:01:56;;;;;;;7.07;6.38;;;8.40;99.90;;;;;;5051312;28;20183;-74
2023/05/03 02:04:22;;;;;;;7.55;6.88;;;8.40;99.90;;;;;;5055080;28;20184;-74
2023/05/03 02:06:47;;;;;;;6.82;6.22;;;8.30;99.90;;;;;;5049973;28;20211;-75
2023/05/03 02:09:13;;;;;;;7.72;7.03;;;8.40;99.90;;;;;;5053327;28;20180;-74
2023/05/03 02:11:39;;;;;;;7.72;6.93;;;8.30;99.90;;;;;;5051033;28;20692;-74
2023/05/03 02:14:04;;;;;;;7.85;7.10;;;8.30;99.90;;;;;;5058164;28;20187;-75
2023/05/03 02:16:30;;;;;;;9.10;7.72;;;8.30;99.90;;;;;;5054183;28;20231;-74
2023/05/03 02:18:58;;;;;;;7.45;6.75;;;8.30;99.90;;;;;;5048524;28;20234;-74
2023/05/03 02:21:25;;;;;;;7.38;6.78;;;8.20;99.90;;;;;;5051820;28;20216;-74
2023/05/03 02:23:50;;;;;;;9.45;7.15;;;8.20;99.90;;;;;;5048439;28;20187;-74
2023/05/03 02:26:16;;;;;;;7.68;7.03;;;8.20;99.90;;;;;;5055956;28;20682;-73
2023/05/03 02:28:42;;;;;;;9.02;7.65;;;8.10;99.90;;;;;;5049385;28;20274;-73
2023/05/03 02:31:08;;;;;;;8.40;7.53;;;8.10;99.90;;;;;;5053871;28;20212;-74
2023/05/03 02:33:33;;;;;;;7.70;7.00;;;8.10;99.90;;;;;;5048688;28;20191;-75
2023/05/03 02:35:59;;;;;;;8.45;7.65;;;8.00;99.90;;;;;;5056658;28;20191;-75
2023/05/03 02:38:24;;;;;;;8.75;7.85;;;8.00;99.90;;;;;;5049176;28;20309;-74
2023/05/03 02:40:50;;;;;;;8.82;7.97;;;8.00;99.90;;;;;;5055824;28;20197;-74
2023/05/03 02:43:16;;;;;;;8.23;7.43;;;8.00;99.90;;;;;;5056037;28;20164;-74
2023/05/03 02:45:44;;;;;;;8.40;7.22;;;7.90;99.90;;;;;;5060729;28;20432;-74
2023/05/03 02:48:11;;;;;;;9.25;8.02;;;8.00;99.90;;;;;;5051069;28;20212;-74
2023/05/03 02:50:37;;;;;;;8.45;7.65;;;7.90;99.90;;;;;;5059498;28;20211;-74
2023/05/03 02:53:03;;;;;;;8.02;7.20;;;7.90;99.90;;;;;;5051182;28;20414;-74
2023/05/03 02:55:29;;;;;;;9.45;8.15;;;7.90;99.90;;;;;;5050954;28;20527;-74
2023/05/03 02:57:55;;;;;;;9.48;7.70;;;7.90;99.90;;;;;;5068678;28;20253;-74
2023/05/03 03:00:20;;;;;;;8.13;7.40;;;7.90;99.90;;;;;;5052243;28;20180;-74
2023/05/03 03:02:46;;;;;;;9.02;8.10;;;7.90;99.90;;;;;;5048286;28;20198;-75
2023/05/03 03:05:11;;;;;;;9.13;8.23;;;7.90;99.90;;;;;;5056415;28;20664;-74
2023/05/03 03:07:38;;;;;;;8.27;7.55;;;7.90;99.90;;;;;;5048103;28;20616;-74
2023/05/03 03:10:05;;;;;;;9.80;8.05;;;7.90;99.90;;;;;;5047851;28;20646;-75
2023/05/03 03:12:32;;;;;;;8.57;7.78;;;7.80;99.90;;;;;;5048171;28;20180;-74
2023/05/03 03:14:57;;;;;;;9.43;8.52;;;7.80;99.90;;;;;;5050403;28;20191;-73
2023/05/03 03:17:23;;;;;;;8.40;7.40;;;7.80;99.90;;;;;;5054990;28;20254;-74
2023/05/03 03:19:48;;;;;;;8.80;7.93;;;7.80;99.90;;;;;;5051353;28;20198;-74
2023/05/03 03:22:14;;;;;;;10.18;8.35;;;7.70;99.90;;;;;;5051595;28;20674;-74
2023/05/03 03:24:40;;;;;;;9.43;8.43;;;7.70;99.90;;;;;;5056843;28;20640;-74
2023/05/03 03:27:05;;;;;;;9.77;8.77;;;7.70;99.90;;;;;;5049708;28;20211;-73
2023/05/03 03:29:31;;;;;;;10.15;8.82;;;7.60;99.90;;;;;;5054715;28;20190;-74
2023/05/03 03:31:57;;;;;;;9.77;8.77;;;7.60;99.90;;;;;;5046708;28;20188;-73
2023/05/03 03:34:23;;;;;;;13.10;8.43;;;7.60;99.90;;;;;;5049677;28;20202;-74
2023/05/03 03:36:48;;;;;;;9.90;8.60;;;7.60;99.90;;;;;;5054196;28;20290;-75
2023/05/03 03:39:14;;;;;;;10.02;8.20;;;7.60;99.90;;;;;;5066844;28;20184;-75
2023/05/03 03:41:40;;;;;;;10.13;8.57;;;7.60;99.90;;;;;;5053766;28;20210;-74
2023/05/03 03:44:05;;;;;;;10.93;8.63;;;7.50;99.90;;;;;;5053120;28;20254;-74
2023/05/03 03:46:31;;;;;;;9.10;8.20;;;7.50;99.90;;;;;;5051465;28;20219;-74
2023/05/03 03:48:57;;;;;;;9.32;7.80;;;7.50;99.90;;;;;;5043796;28;20175;-77
2023/05/03 03:51:22;;;;;;;8.73;7.93;;;7.50;99.90;;;;;;5048409;28;20540;-74
2023/05/03 03:53:48;;;;;;;10.25;9.25;;;7.50;99.90;;;;;;5053366;28;20634;-74
2023/05/03 03:56:13;;;;;;;9.57;8.57;;;7.50;99.90;;;;;;5053241;28;20272;-75
2023/05/03 03:58:39;;;;;;;9.15;8.27;;;7.50;99.90;;;;;;5049804;28;20191;-74
2023/05/03 04:01:05;;;;;;;15.20;9.02;;;7.50;99.90;;;;;;5067971;28;20171;-74
2023/05/03 04:03:30;;;;;;;9.27;8.40;;;7.50;99.90;;;;;;5054118;28;20529;-74
2023/05/03 04:05:56;;;;;;;9.50;8.60;;;7.50;99.90;;;;;;5048831;28;20198;-74
2023/05/03 04:08:22;;;;;;;9.95;8.25;;;7.50;99.90;;;;;;5049116;28;20218;-75
2023/05/03 04:10:47;;;;;;;9.68;8.50;;;7.50;99.90;;;;;;5045340;28;20183;-74
2023/05/03 04:13:13;;;;;;;10.32;9.25;;;7.50;99.90;;;;;;5047907;28;20171;-74
2023/05/03 04:15:38;;;;;;;10.23;8.82;;;7.50;99.90;;;;;;5048587;28;20210;-74
2023/05/03 04:18:04;;;;;;;8.57;7.68;;;7.50;99.90;;;;;;5049223;28;20195;-74
2023/05/03 04:20:31;;;;;;;11.65;8.70;;;7.60;99.90;;;;;;5048092;28;20287;-75
2023/05/03 04:22:57;;;;;;;8.82;8.02;;;7.60;99.90;;;;;;5046136;28;20191;-74
2023/05/03 04:25:24;;;;;;;10.35;8.82;;;7.60;99.90;;;;;;5046960;28;20184;-74
2023/05/03 04:27:50;;;;;;;10.38;9.23;;;7.60;99.90;;;;;;5050168;28;20207;-74
2023/05/03 04:30:16;;;;;;;10.18;9.18;;;7.60;99.90;;;;;;5047845;28;20317;-75
2023/05/03 04:32:42;;;;;;;10.80;9.73;;;7.60;99.90;;;;;;5050952;28;20266;-74
2023/05/03 04:35:09;;;;;;;9.88;8.63;;;7.70;99.90;;;;;;5061276;28;20654;-74
2023/05/03 04:37:36;;;;;;;9.25;7.90;;;7.80;99.90;;;;;;5059967;28;20195;-75
2023/05/03 04:40:06;;;;;;;12.25;8.43;;;7.90;99.90;;;;;;5048623;28;20187;-74
2023/05/03 04:42:32;;;;;;;9.10;8.20;;;8.00;99.90;;;;;;5047591;28;20176;-74
2023/05/03 04:44:57;;;;;;;10.05;8.40;;;8.10;99.90;;;;;;5057631;28;20561;-74
2023/05/03 04:47:24;;;;;;;9.88;8.90;;;8.30;99.90;;;;;;5052376;28;20207;-73
2023/05/03 04:49:50;;;;;;;9.35;8.45;;;8.40;99.90;;;;;;5043928;28;20233;-73
2023/05/03 04:52:16;;;;;;;8.88;8.07;;;8.60;99.90;;;;;;5047288;28;20643;-75
2023/05/03 04:54:41;;;;;;;9.23;8.30;;;8.80;99.90;;;;;;5050896;28;20567;-74
2023/05/03 04:57:09;;;;;;;9.57;8.68;;;8.90;99.90;;;;;;5059093;28;20199;-73
2023/05/03 04:59:35;;;;;;;9.77;8.75;;;9.10;99.90;;;;;;5043786;28;20705;-73
2023/05/03 05:02:01;;;;;;;10.05;8.48;;;9.20;99.90;;;;;;5047646;28;20210;-74
2023/05/03 05:04:26;;;;;;;10.40;8.15;;;9.40;99.90;;;;;;5047731;28;20610;-74
2023/05/03 05:06:53;;;;;;;9.20;8.30;;;9.60;99.90;;;;;;5050744;28;20246;-74
2023/05/03 05:09:27;;;;;;;9.32;8.05;;;9.70;99.90;;;;;;5049011;28;20180;-74
2023/05/03 05:11:53;;;;;;;9.18;7.93;;;9.90;99.90;;;;;;5048622;28;20267;-74
2023/05/03 05:14:19;;;;;;;8.98;8.07;;;10.00;99.90;;;;;;5050043;28;20260;-74
2023/05/03 05:16:45;;;;;;;9.65;8.18;;;10.10;99.90;;;;;;5050614;28;20219;-73
2023/05/03 05:19:11;;;;;;;9.45;8.18;;;10.20;99.90;;;;;;5045728;28;20255;-76
2023/05/03 05:21:38;;;;;;;9.57;8.77;;;10.20;99.90;;;;;;5050366;28;20276;-75
2023/05/03 05:24:04;;;;;;;11.07;9.55;;;10.30;99.90;;;;;;5054724;28;20263;-75
2023/05/03 05:26:30;;;;;;;10.35;9.45;;;10.30;99.90;;;;;;5057792;28;20752;-73
2023/05/03 05:28:55;;;;;;;9.63;8.60;;;10.40;99.90;;;;;;5054622;28;20255;-74
2023/05/03 05:31:21;;;;;;;9.93;8.90;;;10.30;99.90;;;;;;5053224;28;20188;-74
2023/05/03 05:33:47;;;;;;;10.88;8.55;;;10.50;99.90;;;;;;5052053;28;20270;-74
2023/05/03 05:36:13;;;;;;;10.48;9.15;;;10.70;99.90;;;;;;5055097;28;20172;-75
2023/05/03 05:38:39;;;;;;;9.90;8.52;;;10.80;99.90;;;;;;5065226;28;20573;-75
2023/05/03 05:41:05;;;;;;;10.23;8.85;;;11.10;99.90;;;;;;5055608;28;20217;-75
2023/05/03 05:43:31;;;;;;;9.45;8.63;;;11.20;99.90;;;;;;5055468;28;20583;-74
2023/05/03 05:45:56;;;;;;;12.23;9.65;;;11.40;99.90;;;;;;5052307;28;20184;-75
2023/05/03 05:48:22;;;;;;;9.77;8.90;;;11.50;99.90;;;;;;5053529;28;20204;-74
2023/05/03 05:50:47;;;;;;;10.32;9.38;;;11.60;99.90;;;;;;5053217;28;20176;-75
2023/05/03 05:53:13;;;;;;;10.48;9.48;;;11.70;99.90;;;;;;5051707;28;20593;-77
2023/05/03 05:55:39;;;;;;;10.52;9.40;;;11.60;99.90;;;;;;5048792;28;21044;-75
2023/05/03 05:58:05;;;;;;;10.70;9.68;;;11.70;99.90;;;;;;5068655;28;20211;-73
2023/05/03 06:00:31;;;;;;;10.13;9.23;;;11.80;99.90;;;;;;5048158;28;20860;-73
2023/05/03 06:02:57;;;;;;;11.18;9.27;;;11.90;99.90;;;;;;5050071;28;20264;-75
2023/05/03 06:05:23;;;;;;;9.13;8.18;;;12.00;99.90;;;;;;5052579;28;20185;-76
2023/05/03 06:07:49;;;;;;;11.32;8.70;;;12.10;99.90;;;;;;5070610;28;20219;-75
2023/05/03 06:10:15;;;;;;;10.60;9.55;;;12.10;99.90;;;;;;5068838;28;20180;-76
2023/05/03 06:12:40;;;;;;;9.82;8.95;;;12.10;99.90;;;;;;5048481;28;20192;-74
2023/05/03 06:15:07;;;;;;;10.27;9.27;;;12.20;99.90;;;;;;5052456;28;20677;-78
2023/05/03 06:17:34;;;;;;;11.88;9.90;;;12.30;99.90;;;;;;5051646;28;20540;-75
2023/05/03 06:20:00;;;;;;;10.13;9.07;;;12.30;99.90;;;;;;5053634;28;20267;-76
2023/05/03 06:22:26;;;;;;;10.55;9.55;;;12.30;99.90;;;;;;5050812;28;20181;-76
2023/05/03 06:24:51;;;;;;;9.50;8.48;;;12.30;99.90;;;;;;5055638;28;20176;-74
2023/05/03 06:27:17;;;;;;;9.93;8.90;;;12.30;99.90;;;;;;5053862;28;20212;-74
2023/05/03 06:29:43;;;;;;;9.63;8.73;;;12.40;99.90;;;;;;5050125;28;20180;-77
2023/05/03 06:32:09;;;;;;;10.00;9.00;;;12.40;99.90;;;;;;5051129;28;20172;-75
2023/05/03 06:34:36;;;;;;;9.45;8.55;;;12.60;99.90;;;;;;5047272;28;20187;-76
2023/05/03 06:37:02;;;;;;;9.50;8.60;;;12.70;99.90;;;;;;5051308;28;20238;-75
2023/05/03 06:39:27;;;;;;;9.20;8.30;;;12.90;99.90;;;;;;5052767;28;20207;-76
2023/05/03 06:41:53;;;;;;;11.00;9.07;;;13.10;99.90;;;;;;5051294;28;20180;-76
2023/05/03 06:44:19;;;;;;;8.88;8.07;;;13.30;99.90;;;;;;5051115;28;20241;-76
2023/05/03 06:46:44;;;;;;;8.73;7.85;;;13.50;99.90;;;;;;5052257;28;20265;-75
2023/05/03 06:49:10;;;;;;;9.02;8.15;;;13.70;99.90;;;;;;5051029;28;20179;-75
2023/05/03 06:51:35;;;;;;;10.10;8.10;;;13.90;99.90;;;;;;5053176;28;20180;-76
2023/05/03 06:54:05;;;;;;;8.90;8.00;;;14.00;99.90;;;;;;5052768;28;20187;-77
2023/05/03 06:56:32;;;;;;;8.27;7.50;;;14.10;99.90;;;;;;5052103;28;20537;-75
2023/05/03 06:58:58;;;;;;;10.88;7.93;;;14.20;99.90;;;;;;5047385;28;20548;-76
2023/05/03 07:01:24;;;;;;;8.57;7.70;;;14.20;99.90;;;;;;5050701;28;20267;-77
2023/05/03 07:03:50;;;;;;;10.55;8.00;;;14.20;99.90;;;;;;5047149;28;20287;-76
2023/05/03 07:06:15;;;;;;;10.00;8.75;;;14.10;99.90;;;;;;5054789;28;20188;-77
2023/05/03 07:08:41;;;;;;;9.75;8.73;;;13.90;99.90;;;;;;5052516;28;20262;-76
2023/05/03 07:11:07;;;;;;;9.10;8.25;;;13.70;99.90;;;;;;5051273;28;20176;-75
2023/05/03 07:13:32;;;;;;;9.55;8.48;;;13.40;99.90;;;;;;5053573;28;20187;-75
2023/05/03 07:15:58;;;;;;;10.18;8.80;;;13.30;99.90;;;;;;5051393;28;20215;-74
2023/05/03 07:18:24;;;;;;;9.60;8.60;;;13.20;99.90;;;;;;5055905;28;20336;-75
2023/05/03 07:20:50;;;;;;;11.55;9.50;;;13.00;99.90;;;;;;5045985;28;20656;-74
2023/05/03 07:23:15;;;;;;;11.57;8.52;;;12.90;99.90;;;;;;5047972;28;20465;-74
2023/05/03 07:25:42;;;;;;;11.82;9.10;;;12.90;99.90;;;;;;5051250;28;20184;-75
2023/05/03 07:28:08;;;;;;;11.63;9.77;;;12.90;99.90;;;;;;5050636;28;20229;-74
2023/05/03 07:30:34;;;;;;;9.23;8.43;;;12.90;99.90;;;;;;5051145;28;20317;-76
2023/05/03 07:33:00;;;;;;;11.10;9.10;;;13.10;99.90;;;;;;5050810;28;20622;-74
2023/05/03 07:35:26;;;;;;;10.25;9.25;;;13.20;99.90;;;;;;5052652;28;20258;-75
2023/05/03 07:37:51;;;;;;;9.82;8.73;;;13.50;99.90;;;;;;5052124;28;20638;-75
2023/05/03 07:40:18;;;;;;;10.88;8.90;;;13.80;99.90;;;;;;5048545;28;20258;-74
2023/05/03 07:42:43;;;;;;;9.80;8.80;;;14.00;99.90;;;;;;5046167;28;20559;-74
2023/05/03 07:45:09;;;;;;;11.02;9.57;;;14.30;99.90;;;;;;5050290;28;20194;-75
2023/05/03 07:47:38;;;;;;;11.05;8.57;;;14.50;99.90;;;;;;5055684;28;20207;-75
2023/05/03 07:50:05;;;;;;;11.35;8.45;;;14.90;99.90;;;;;;5052332;28;20205;-74
2023/05/03 07:52:38;;;;;;;13.13;8.65;;;15.20;99.90;;;;;;5052204;28;20556;-74
2023/05/03 07:55:06;;;;;;;11.43;8.75;;;15.60;99.90;;;;;;5055872;28;20174;-75
2023/05/03 07:57:32;;;;;;;11.20;8.82;;;16.00;99.90;;;;;;5048153;28;20199;-75
2023/05/03 07:59:57;;;;;;;9.30;8.38;;;16.30;99.90;;;;;;5050462;28;20608;-75
2023/05/03 08:02:23;;;;;;;9.38;8.30;;;16.70;99.90;;;;;;5052954;28;20176;-75
2023/05/03 08:04:48;;;;;;;9.50;8.13;;;16.90;99.90;;;;;;5055466;28;20192;-75
2023/05/03 08:07:16;;;;;;;9.57;8.52;;;17.20;99.90;;;;;;5053131;28;20251;-75
2023/05/03 08:09:41;;;;;;;9.73;8.45;;;17.40;99.90;;;;;;5051823;28;20199;-75
2023/05/03 08:12:07;;;;;;;8.20;7.40;;;17.60;99.90;;;;;;5054438;28;20712;-75
2023/05/03 08:14:33;;;;;;;8.77;7.50;;;17.70;99.90;;;;;;5066788;28;20742;-75
2023/05/03 08:16:59;;;;;;;9.32;8.30;;;17.80;99.90;;;;;;5049171;28;20207;-76
2023/05/03 08:19:25;;;;;;;12.07;8.52;;;17.90;99.90;;;;;;5049418;28;20180;-76
2023/05/03 08:21:53;;;;;;;8.95;7.90;;;18.00;99.90;;;;;;5049868;28;20225;-75
2023/05/03 08:24:19;;;;;;;8.38;7.57;;;18.10;99.90;;;;;;5049228;28;20306;-75
2023/05/03 08:26:45;;;;;;;8.68;7.78;;;18.20;99.90;;;;;;5048692;28;20208;-75
2023/05/03 08:29:11;;;;;;;8.43;7.68;;;18.00;99.20;;;;;;5048855;28;20508;-75
2023/05/03 08:31:36;;;;;;;9.63;8.45;;;18.10;99.10;;;;;;5052816;28;20187;-75
2023/05/03 08:34:02;;;;;;;10.55;8.48;;;18.30;98.90;;;;;;5051813;28;20175;-75
2023/05/03 08:36:29;;;;;;;8.35;7.55;;;18.40;98.00;;;;;;5050431;28;20191;-74
2023/05/03 08:38:54;;;;;;;10.52;7.80;;;18.40;97.40;;;;;;5051987;28;20782;-76
2023/05/03 08:41:29;;;;;;;7.38;6.78;;;18.50;96.60;;;;;;5051361;28;20263;-74
2023/05/03 08:43:56;;;;;;;9.65;8.68;;;18.50;96.90;;;;;;5044970;28;20729;-75
2023/05/03 08:46:24;;;;;;;9.32;8.40;;;18.60;95.60;;;;;;5044727;28;20711;-76
2023/05/03 08:48:51;;;;;;;8.95;8.05;;;18.50;95.90;;;;;;5049821;28;20184;-75
2023/05/03 08:51:18;;;;;;;10.52;7.95;;;18.80;96.40;;;;;;5045054;28;20210;-77
2023/05/03 08:53:44;;;;;;;8.65;7.88;;;19.20;95.00;;;;;;5047686;28;20191;-77
2023/05/03 08:56:11;;;;;;;8.63;7.82;;;19.50;95.90;;;;;;5055857;28;20199;-76
2023/05/03 08:58:37;;;;;;;8.43;6.82;;;19.70;94.50;;;;;;5053866;28;20582;-77
2023/05/03 09:01:05;;;;;;;7.55;6.60;;;19.90;94.60;;;;;;5055485;28;20266;-75
2023/05/03 09:03:31;;;;;;;8.77;7.43;;;20.00;93.80;;;;;;5054007;28;20171;-76
2023/05/03 09:06:00;;;;;;;8.32;7.63;;;20.00;92.90;;;;;;5050209;28;20186;-75
2023/05/03 09:08:30;;;;;;;8.75;7.85;;;20.10;92.50;;;;;;5052129;28;20246;-75
2023/05/03 09:10:56;;;;;;;7.78;6.85;;;20.20;91.40;;;;;;5053586;28;20184;-75
2023/05/03 09:13:29;;;;;;;9.82;7.70;;;20.20;91.20;;;;;;5054903;28;20601;-75
2023/05/03 09:15:56;;;;;;;9.77;7.38;;;20.10;91.00;;;;;;5048077;28;20206;-74
2023/05/03 09:18:22;;;;;;;7.05;6.55;;;20.20;91.10;;;;;;5053983;28;20226;-76
2023/05/03 09:20:52;;;;;;;10.27;7.53;;;20.30;91.40;;;;;;5051428;28;20195;-75
2023/05/03 09:23:25;;;;;;;9.15;7.40;;;20.30;90.70;;;;;;5055643;28;20266;-76
2023/05/03 09:25:51;;;;;;;9.38;8.48;;;20.30;91.10;;;;;;5052150;28;20187;-76
2023/05/03 09:28:18;;;;;;;7.93;7.20;;;20.40;88.00;;;;;;5050517;28;20621;-74
2023/05/03 09:30:45;;;;;;;7.85;7.15;;;20.60;90.10;;;;;;5050966;28;20685;-74
2023/05/03 09:33:11;;;;;;;7.03;6.32;;;21.70;86.60;;;;;;5056370;28;20275;-76
2023/05/03 09:35:37;;;;;;;7.47;6.78;;;23.10;84.60;;;;;;5053197;28;20259;-75
2023/05/03 09:38:03;;;;;;;7.80;7.20;;;24.60;79.10;;;;;;5051187;28;20243;-76
2023/05/03 09:40:29;;;;;;;8.20;7.22;;;25.30;72.30;;;;;;5053832;28;20215;-76
2023/05/03 09:43:11;;;;;;;7.43;6.80;;;25.10;70.20;;;;;;5046167;28;20187;-76
2023/05/03 09:45:37;;;;;;;8.18;7.47;;;24.50;69.50;;;;;;5052174;28;20544;-75
2023/05/03 09:48:05;;;;;;;7.38;6.78;;;23.80;72.10;;;;;;5050118;28;20222;-75
2023/05/03 09:50:32;;;;;;;7.25;6.63;;;23.00;74.50;;;;;;5056282;28;20183;-75
2023/05/03 09:53:02;;;;;;;7.53;6.82;;;22.20;74.70;;;;;;5052083;28;20176;-75
2023/05/03 09:55:33;;;;;;;7.68;6.50;;;21.60;77.40;;;;;;5051634;28;20241;-77
2023/05/03 09:57:59;;;;;;;6.90;6.30;;;21.10;79.40;;;;;;5051311;28;20199;-76
2023/05/03 10:00:27;;;;;;;7.57;6.93;;;20.80;80.00;;;;;;5066258;28;20184;-75
2023/05/03 10:02:56;;;;;;;7.65;6.85;;;20.30;79.90;;;;;;5054944;28;20194;-75
2023/05/03 10:05:23;;;;;;;6.60;6.10;;;19.90;82.50;;;;;;5046865;28;20347;-74
2023/05/03 10:07:51;;;;;;;8.50;6.78;;;19.70;83.50;;;;;;5049624;28;20718;-75
2023/05/03 10:10:18;;;;;;;6.82;6.22;;;19.50;84.70;;;;;;5054102;28;20585;-75
2023/05/03 10:12:44;;;;;;;7.95;7.20;;;19.90;85.40;;;;;;5052765;28;20386;-72
2023/05/03 10:15:14;;;;;;;6.85;6.25;;;20.70;81.10;;;;;;5053054;28;20659;-76
2023/05/03 10:17:42;;;;;;;7.85;6.93;;;21.80;80.30;;;;;;5046053;28;20210;-75
2023/05/03 10:20:35;;;;;;;6.30;5.80;;;23.20;73.20;;;;;;5049687;28;20191;-77
2023/05/03 10:23:04;;;;;;;5.93;5.32;;;24.70;69.70;;;;;;5053714;28;20190;-75
2023/05/03 10:25:30;;;;;;;6.13;5.63;;;26.00;67.70;;;;;;5051198;28;20191;-76
2023/05/03 10:28:07;;;;;;;6.55;6.05;;;26.10;65.30;;;;;;5054963;28;20218;-75
2023/05/03 10:30:38;;;;;;;5.85;5.45;;;25.90;65.30;;;;;;5048078;28;20186;-76
2023/05/03 10:33:12;;;;;;;6.70;6.15;;;25.40;64.90;;;;;;5049714;28;20515;-76
2023/05/03 10:35:39;;;;;;;6.13;5.63;;;24.90;64.60;;;;;;5054587;28;20273;-75
2023/05/03 10:38:16;;;;;;;6.68;6.07;;;24.80;66.10;;;;;;5051598;28;20587;-76
2023/05/03 10:40:42;;;;;;;5.82;5.32;;;24.70;66.00;;;;;;5049934;28;20244;-76
2023/05/03 10:43:31;;;;;;;5.25;4.85;;;24.00;65.30;;;;;;5052271;28;20188;-76
2023/05/03 10:45:57;;;;;;;5.70;5.20;;;24.30;66.90;;;;;;5046871;28;20207;-76
2023/05/03 10:48:24;;;;;;;5.30;4.90;;;24.50;65.80;;;;;;5048638;28;20230;-75
2023/05/03 10:50:51;;;;;;;5.30;4.80;;;24.50;64.60;;;;;;5053826;28;20241;-76
2023/05/03 10:53:43;;;;;;;5.15;4.53;;;23.90;65.30;;;;;;5046425;28;20184;-74
2023/05/03 10:56:14;;;;;;;5.40;5.00;;;23.40;66.00;;;;;;5049224;28;20685;-76
2023/05/03 10:58:47;;;;;;;5.68;5.18;;;22.50;66.70;;;;;;5051887;28;20551;-76
2023/05/03 11:01:15;;;;;;;6.35;5.75;;;21.90;69.40;;;;;;5052210;28;20191;-76
2023/05/03 11:04:12;;;;;;;5.95;5.55;;;21.30;71.30;;;;;;5050097;28;20187;-76
2023/05/03 11:06:44;;;;;;;5.35;4.82;;;21.00;72.50;;;;;;5043476;28;20233;-76
2023/05/03 11:09:12;;;;;;;5.93;5.43;;;21.00;73.60;;;;;;5051233;28;20180;-74
2023/05/03 11:11:39;;;;;;;5.50;4.93;;;20.70;73.60;;;;;;5049386;28;20257;-75
2023/05/03 11:14:07;;;;;;;5.35;4.95;;;20.80;73.00;;;;;;5047689;28;20201;-75
2023/05/03 11:16:33;;;;;;;5.28;4.78;;;20.80;73.20;;;;;;5049674;28;20211;-75
2023/05/03 11:19:02;;;;;;;6.68;5.57;;;20.70;73.90;;;;;;5052298;28;20701;-74
2023/05/03 11:21:28;;;;;;;5.53;5.13;;;20.70;73.20;;;;;;5047312;28;20215;-74
2023/05/03 11:23:53;;;;;;;5.80;5.15;;;20.70;73.10;;;;;;5054119;28;20573;-75
2023/05/03 11:26:24;;;;;;;5.90;5.38;;;21.60;74.20;;;;;;5051033;28;20188;-75
2023/05/03 11:28:50;;;;;;;8.93;5.10;;;23.20;69.80;;;;;;5048615;28;20191;-72
2023/05/03 11:31:16;;;;;;;5.53;4.93;;;24.10;65.50;;;;;;5050828;28;20172;-75
2023/05/03 11:33:42;;;;;;;5.32;4.93;;;24.10;65.00;;;;;;5049407;28;20180;-73
2023/05/03 11:36:08;;;;;;;5.22;4.72;;;24.20;63.90;;;;;;5052641;28;20164;-75
2023/05/03 11:38:35;;;;;;;4.82;4.38;;;24.40;62.40;;;;;;5049668;28;20229;-75
2023/05/03 11:41:17;;;;;;;5.00;4.50;;;25.20;62.70;;;;;;5049334;28;20187;-73
2023/05/03 11:43:44;;;;;;;5.22;4.82;;;25.70;59.50;;;;;;5048382;28;20180;-73
2023/05/03 11:46:10;;;;;;;4.80;4.40;;;25.60;59.10;;;;;;5049303;28;20658;-73
2023/05/03 11:48:37;;;;;;;5.22;3.75;;;25.40;59.10;;;;;;5050708;28;20235;-76
2023/05/03 11:51:10;;;;;;;4.72;4.32;;;24.80;60.00;;;;;;5050409;28;20241;-75
2023/05/03 11:53:37;;;;;;;5.78;5.38;;;24.80;61.10;;;;;;5055026;28;20262;-75
2023/05/03 11:56:07;;;;;;;5.22;4.38;;;25.40;59.70;;;;;;5053732;28;20186;-73
2023/05/03 11:58:33;;;;;;;4.38;4.07;;;26.40;58.30;;;;;;5050905;28;20212;-71
2023/05/03 12:00:59;;;;;;;4.50;4.20;;;27.60;55.50;;;;;;5051760;28;20217;-73
2023/05/03 12:03:34;;;;;;;5.00;4.50;;;28.60;53.60;;;;;;5051015;28;20244;-71
2023/05/03 12:06:00;;;;;;;4.97;4.50;;;29.30;51.40;;;;;;5050793;28;20614;-73
2023/05/03 12:08:29;;;;;;;4.72;4.43;;;29.60;50.80;;;;;;5048303;28;20285;-72
2023/05/03 12:10:55;;;;;;;4.60;4.15;;;30.20;48.10;;;;;;5051690;28;20869;-73
2023/05/03 12:13:35;;;;;;;4.30;4.00;;;29.50;48.60;;;;;;5049356;28;20536;-73
2023/05/03 12:16:03;;;;;;;4.10;3.90;;;28.50;50.80;;;;;;5047629;28;20176;-74
2023/05/03 12:19:13;;;;;;;4.40;4.00;;;28.90;51.60;;;;;;5048099;28;20179;-72
2023/05/03 12:21:46;;;;;;;4.05;3.40;;;29.70;51.10;;;;;;5041778;28;20199;-73
2023/05/03 12:24:16;;;;;;;3.30;3.10;;;30.90;48.30;;;;;;5050333;28;20560;-72
2023/05/03 12:26:45;;;;;;;2.95;2.83;;;31.40;47.10;;;;;;5050452;28;21100;-73
2023/05/03 12:29:13;;;;;;;3.08;2.88;;;31.80;45.20;;;;;;5053111;28;20186;-73
2023/05/03 12:31:39;;;;;;;4.63;3.58;;;32.10;44.60;;;;;;5055452;28;20560;-74
2023/05/03 12:34:05;;;;;;;3.17;2.97;;;32.10;43.80;;;;;;5059172;28;20186;-73
2023/05/03 12:36:31;;;;;;;2.78;2.67;;;32.40;43.40;;;;;;5050700;28;20199;-72
2023/05/03 12:38:57;;;;;;;3.17;2.97;;;32.60;43.30;;;;;;5055660;28;20219;-74
2023/05/03 12:41:26;;;;;;;3.20;2.90;;;33.00;42.90;;;;;;5056509;28;20183;-75
2023/05/03 12:43:52;;;;;;;3.70;3.35;;;33.40;42.30;;;;;;5058645;28;20654;-74
2023/05/03 12:46:18;;;;;;;3.40;3.20;;;33.80;42.90;;;;;;5059412;28;20199;-74
2023/05/03 12:48:44;;;;;;;2.95;2.75;;;34.10;41.90;;;;;;5056355;28;20725;-73